Time;durP1;ratioP1;P1;durP2;ratioP2;P2;SDS_P1;SDS_P2;PMS_P1;PMS_P2;Temp;Humidity;BMP_temperature;BMP_pressure;BME280_temperature;BME280_humidity;BME280_pressure;Samples;Min_cycle;Max_cycle;Signal;HPM_P1;HPM_P2
2023/07/29 00:00:42;;;;;;;1.40;0.65;;;;;;;20.78;100.00;100449.28;5093631;28;20055;-71
2023/07/29 00:03:08;;;;;;;2.38;0.60;;;;;;;20.79;100.00;100448.25;5093688;28;20036;-71
2023/07/29 00:05:33;;;;;;;1.25;0.60;;;;;;;20.77;100.00;100447.66;5092329;28;20408;-71
2023/07/29 00:07:59;;;;;;;2.88;0.55;;;;;;;20.75;100.00;100441.75;5092463;28;20024;-71
2023/07/29 00:10:24;;;;;;;1.77;0.50;;;;;;;20.74;100.00;100445.44;5093600;28;20089;-71
2023/07/29 00:12:49;;;;;;;1.60;0.80;;;;;;;20.70;100.00;100438.13;5093699;28;20430;-71
2023/07/29 00:15:15;;;;;;;1.10;0.50;;;;;;;20.68;100.00;100440.97;5093447;28;20530;-71
2023/07/29 00:17:40;;;;;;;1.33;0.63;;;;;;;20.70;100.00;100443.41;5080794;28;20533;-71
2023/07/29 00:20:08;;;;;;;1.45;0.57;;;;;;;20.68;100.00;100435.69;5092627;28;20055;-71
2023/07/29 00:22:33;;;;;;;1.58;0.47;;;;;;;20.69;100.00;100447.09;5093371;28;20058;-71
2023/07/29 00:24:59;;;;;;;2.65;0.80;;;;;;;20.71;100.00;100439.75;5093579;28;20028;-71
2023/07/29 00:27:25;;;;;;;1.48;0.57;;;;;;;20.70;100.00;100441.59;5092918;28;20016;-71
2023/07/29 00:29:51;;;;;;;1.00;0.57;;;;;;;20.70;100.00;100441.59;5093263;28;20118;-71
2023/07/29 00:32:16;;;;;;;4.00;0.73;;;;;;;20.74;100.00;100441.97;5093539;28;20067;-71
2023/07/29 00:34:42;;;;;;;4.03;0.65;;;;;;;20.75;100.00;100440.94;5093333;28;20430;-71
2023/07/29 00:37:07;;;;;;;1.65;0.55;;;;;;;20.76;100.00;100446.03;5089952;28;20435;-71
2023/07/29 00:39:33;;;;;;;1.85;0.50;;;;;;;20.80;100.00;100441.91;5093465;28;20046;-71
2023/07/29 00:41:59;;;;;;;3.05;0.65;;;;;;;20.80;100.00;100439.25;5093660;28;20479;-71
2023/07/29 00:44:24;;;;;;;4.20;0.70;;;;;;;20.77;100.00;100434.41;5093498;28;20387;-70
2023/07/29 00:46:54;;;;;;;2.45;0.63;;;;;;;20.78;100.00;100440.53;5086628;28;20036;-71
2023/07/29 00:49:20;;;;;;;4.63;0.57;;;;;;;20.75;100.00;100436.47;5093316;28;20066;-71
2023/07/29 00:51:46;;;;;;;3.03;0.60;;;;;;;20.76;100.00;100438.09;5072005;28;20128;-71
2023/07/29 00:54:12;;;;;;;2.55;0.50;;;;;;;20.78;100.00;100427.28;5088106;28;20457;-71
2023/07/29 00:56:38;;;;;;;0.75;0.45;;;;;;;20.77;100.00;100430.97;5087261;28;20081;-71
2023/07/29 00:59:04;;;;;;;1.45;0.40;;;;;;;20.75;100.00;100431.16;5093078;28;20473;-71
2023/07/29 01:01:30;;;;;;;1.15;0.50;;;;;;;20.74;100.00;100424.25;5093278;28;20059;-71
2023/07/29 01:03:56;;;;;;;2.33;0.43;;;;;;;20.72;100.00;100426.31;5093637;28;20490;-71
2023/07/29 01:07:07;;;;;;;3.00;0.60;;;;;;;20.70;100.00;100423.06;5092693;28;20042;-71
2023/07/29 01:10:07;;;;;;;4.60;0.60;;;;;;;20.71;100.00;100418.56;5068470;28;20506;-71
2023/07/29 01:12:47;;;;;;;1.65;0.50;;;;;;;20.72;100.00;100420.19;5062741;28;20399;-71
2023/07/29 01:15:35;;;;;;;2.15;0.47;;;;;;;20.71;100.00;100419.38;5067598;28;20568;-71
2023/07/29 01:18:20;;;;;;;0.70;0.38;;;;;;;20.66;100.00;100419.19;5051246;28;20511;-71
2023/07/29 01:20:48;;;;;;;0.95;0.55;;;;;;;20.65;100.00;100414.13;5067949;28;20044;-71
2023/07/29 01:23:13;;;;;;;1.70;0.50;;;;;;;20.67;100.00;100415.53;5068413;28;20062;-71
2023/07/29 01:25:39;;;;;;;2.38;0.60;;;;;;;20.66;100.00;100411.25;5065084;28;20419;-71
2023/07/29 01:28:04;;;;;;;1.73;0.52;;;;;;;20.68;100.00;100419.81;5067183;28;20515;-71
2023/07/29 01:30:37;;;;;;;1.08;0.40;;;;;;;20.64;100.00;100413.31;5068258;28;20062;-71
2023/07/29 01:33:26;;;;;;;1.48;0.60;;;;;;;20.63;100.00;100419.63;5050994;28;20132;-71
2023/07/29 01:36:03;;;;;;;1.52;0.50;;;;;;;20.59;100.00;100421.06;5064013;28;20036;-70
2023/07/29 01:38:34;;;;;;;5.47;2.35;;;;;;;20.55;100.00;100414.56;5068467;28;20063;-71
2023/07/29 01:41:01;;;;;;;2.78;0.60;;;;;;;20.53;100.00;100408.66;5088524;28;20070;-70
2023/07/29 01:43:28;;;;;;;1.10;0.60;;;;;;;20.51;100.00;100402.78;5093251;28;20025;-71
2023/07/29 01:45:54;;;;;;;5.28;0.63;;;;;;;20.51;100.00;100402.78;5092081;28;20052;-70
2023/07/29 01:48:19;;;;;;;1.20;0.57;;;;;;;20.48;100.00;100400.53;5089075;28;20063;-71
2023/07/29 01:50:45;;;;;;;3.83;0.80;;;;;;;20.46;100.00;100397.28;5086390;28;20063;-71
2023/07/29 01:53:10;;;;;;;3.28;0.60;;;;;;;20.48;100.00;100389.97;5093438;28;20091;-71
2023/07/29 01:55:36;;;;;;;1.50;0.65;;;;;;;20.53;100.00;100400.72;5093310;28;20058;-71
2023/07/29 01:58:01;;;;;;;1.70;0.70;;;;;;;20.53;100.00;100406.84;5094015;28;20347;-71
2023/07/29 02:00:27;;;;;;;3.28;0.50;;;;;;;20.54;100.00;100397.06;5089912;28;20560;-71
2023/07/29 02:02:52;;;;;;;2.00;0.68;;;;;;;20.54;100.00;100397.06;5091970;28;20060;-71
2023/07/29 02:05:17;;;;;;;1.30;0.50;;;;;;;20.54;100.00;100392.56;5093374;28;20028;-71
2023/07/29 02:07:43;;;;;;;2.35;0.60;;;;;;;20.59;100.00;100385.84;5093027;28;20051;-71
2023/07/29 02:10:08;;;;;;;1.20;0.55;;;;;;;20.57;100.00;100380.75;5094719;28;20068;-71
2023/07/29 02:12:34;;;;;;;4.15;0.70;;;;;;;20.59;100.00;100391.13;5093403;28;20084;-71
2023/07/29 02:14:59;;;;;;;1.15;0.60;;;;;;;20.61;100.00;100403.13;5091368;28;20155;-71
2023/07/29 02:17:26;;;;;;;1.33;0.50;;;;;;;20.65;100.00;100403.53;5091747;28;20046;-71
2023/07/29 02:19:51;;;;;;;1.38;0.70;;;;;;;20.70;100.00;100401.88;5094102;28;20439;-71
2023/07/29 02:22:17;;;;;;;1.73;0.50;;;;;;;20.64;100.00;100400.06;5093650;28;20058;-71
2023/07/29 02:24:43;;;;;;;4.82;0.50;;;;;;;20.63;100.00;100406.38;5093443;28;20032;-71
2023/07/29 02:27:09;;;;;;;2.83;0.60;;;;;;;20.61;100.00;100413.72;5094817;28;20032;-71
2023/07/29 02:29:34;;;;;;;2.45;0.68;;;;;;;20.60;100.00;100422.69;5093436;28;20467;-71
2023/07/29 02:32:00;;;;;;;1.02;0.57;;;;;;;20.55;100.00;100422.50;5092423;28;20041;-71
2023/07/29 02:34:25;;;;;;;4.18;0.63;;;;;;;20.47;100.00;100430.69;5093605;28;20024;-72
2023/07/29 02:36:51;;;;;;;1.52;0.70;;;;;;;20.40;100.00;100429.88;5094186;28;20510;-73
2023/07/29 02:39:16;;;;;;;2.58;1.00;;;;;;;20.29;100.00;100427.88;5093949;28;20097;-73
2023/07/29 02:41:42;;;;;;;1.95;0.75;;;;;;;20.16;100.00;100440.13;5093457;28;20488;-73
2023/07/29 02:44:07;;;;;;;2.20;1.05;;;;;;;19.97;100.00;100438.31;5094796;28;20034;-74
2023/07/29 02:46:33;;;;;;;2.95;0.82;;;;;;;19.80;100.00;100447.72;5092854;28;20063;-74
2023/07/29 02:48:59;;;;;;;2.45;1.55;;;;;;;19.65;100.00;100445.28;5094838;28;20036;-75
2023/07/29 02:51:24;;;;;;;5.15;1.13;;;;;;;19.58;100.00;100451.59;5093546;28;20028;-75
2023/07/29 02:53:50;;;;;;;3.58;1.27;;;;;;;19.51;100.00;100455.03;5089620;28;20051;-76
2023/07/29 02:56:15;;;;;;;3.53;1.10;;;;;;;19.45;100.00;100453.16;5097957;28;20487;-76
2023/07/29 02:58:40;;;;;;;2.30;1.25;;;;;;;19.41;100.00;100446.66;5097069;28;20123;-76
2023/07/29 03:01:06;;;;;;;2.97;1.00;;;;;;;19.35;100.00;100442.22;5097673;28;20393;-76
2023/07/29 03:03:32;;;;;;;3.97;1.23;;;;;;;19.35;100.00;100436.94;5089464;28;20048;-75
2023/07/29 03:06:05;;;;;;;1.85;1.20;;;;;;;19.29;100.00;100439.56;5097023;28;20083;-75
2023/07/29 03:08:30;;;;;;;1.85;1.02;;;;;;;19.24;100.00;100440.16;5097250;28;20024;-74
2023/07/29 03:10:57;;;;;;;1.83;1.25;;;;;;;19.21;100.00;100448.50;5098596;28;20462;-75
2023/07/29 03:13:22;;;;;;;3.20;1.50;;;;;;;19.26;100.00;100456.63;5090902;28;20447;-74
2023/07/29 03:15:48;;;;;;;2.65;1.35;;;;;;;19.33;100.00;100465.38;5097178;28;20048;-74
2023/07/29 03:18:14;;;;;;;2.03;1.38;;;;;;;19.36;100.00;100469.44;5092377;28;20020;-74
2023/07/29 03:20:40;;;;;;;3.50;1.52;;;;;;;19.30;100.00;100473.72;5095739;28;20525;-73
2023/07/29 03:23:06;;;;;;;2.30;1.88;;;;;;;19.27;100.00;100475.94;5098452;28;20067;-74
2023/07/29 03:25:31;;;;;;;3.88;1.70;;;;;;;19.10;100.00;100480.75;5097195;28;20047;-74
2023/07/29 03:27:56;;;;;;;4.80;1.50;;;;;;;18.92;100.00;100485.78;5098499;28;20042;-74
2023/07/29 03:30:22;;;;;;;1.88;1.55;;;;;;;18.80;100.00;100496.94;5097035;28;20024;-73
2023/07/29 03:32:50;;;;;;;3.60;1.50;;;;;;;18.87;100.00;100500.41;5094648;28;20528;-74
2023/07/29 03:35:15;;;;;;;3.05;1.52;;;;;;;18.95;100.00;100488.84;5098039;28;20360;-73
2023/07/29 03:37:41;;;;;;;3.28;2.00;;;;;;;19.03;100.00;100488.66;5097070;28;20431;-73
2023/07/29 03:40:08;;;;;;;4.10;2.38;;;;;;;19.06;100.00;100479.53;5098528;28;20035;-74
2023/07/29 03:42:34;;;;;;;8.35;2.08;;;;;;;19.02;100.00;100481.75;5097051;28;20086;-74
2023/07/29 03:44:59;;;;;;;2.45;1.65;;;;;;;18.89;100.00;100479.91;5098518;28;20032;-73
2023/07/29 03:47:25;;;;;;;2.60;1.88;;;;;;;18.83;100.00;100493.91;5094820;28;20024;-74
2023/07/29 03:49:50;;;;;;;2.97;1.83;;;;;;;18.84;100.00;100490.25;5097313;28;20040;-74
2023/07/29 03:52:15;;;;;;;5.00;2.10;;;;;;;18.86;100.00;100496.16;5097495;28;20093;-74
2023/07/29 03:54:41;;;;;;;4.38;2.20;;;;;;;18.89;100.00;100495.75;5096916;28;20497;-74
2023/07/29 03:57:06;;;;;;;2.90;2.15;;;;;;;18.92;100.00;100502.44;5098421;28;20096;-74
2023/07/29 03:59:32;;;;;;;4.43;2.67;;;;;;;18.99;100.00;100502.47;5096809;28;20065;-73
2023/07/29 04:01:57;;;;;;;3.03;2.15;;;;;;;19.04;100.00;100492.13;5097742;28;20390;-74
2023/07/29 04:04:23;;;;;;;3.03;1.95;;;;;;;19.08;100.00;100488.06;5093867;28;20407;-74
2023/07/29 04:06:48;;;;;;;5.68;2.72;;;;;;;19.10;100.00;100478.13;5096447;28;20402;-74
2023/07/29 04:09:14;;;;;;;3.65;2.72;;;;;;;19.08;100.00;100490.72;5098201;28;20069;-74
2023/07/29 04:11:39;;;;;;;3.83;1.95;;;;;;;19.04;100.00;100486.84;5096669;28;20035;-74
2023/07/29 04:14:05;;;;;;;4.55;2.83;;;;;;;19.07;100.00;100495.19;5098625;28;20049;-74
2023/07/29 04:16:30;;;;;;;3.83;1.58;;;;;;;19.04;100.00;100497.41;5096573;28;20062;-74
2023/07/29 04:18:56;;;;;;;2.22;1.73;;;;;;;18.89;100.00;100497.56;5097426;28;20044;-74
2023/07/29 04:21:21;;;;;;;2.78;1.75;;;;;;;18.79;100.00;100487.38;5093487;28;20020;-75
2023/07/29 04:23:47;;;;;;;2.28;1.50;;;;;;;18.76;100.00;100487.78;5096934;28;20044;-75
2023/07/29 04:26:12;;;;;;;3.95;1.90;;;;;;;18.77;100.00;100478.84;5098413;28;20031;-74
2023/07/29 04:28:38;;;;;;;3.83;1.88;;;;;;;18.81;100.00;100482.72;5096704;28;20130;-75
2023/07/29 04:31:03;;;;;;;2.70;2.05;;;;;;;18.84;100.00;100474.41;5098363;28;20035;-74
2023/07/29 04:33:30;;;;;;;2.20;2.00;;;;;;;18.89;100.00;100477.28;5091184;28;20027;-75
2023/07/29 04:35:56;;;;;;;4.30;2.10;;;;;;;18.87;100.00;100471.38;5097984;28;20048;-74
2023/07/29 04:38:21;;;;;;;3.17;1.50;;;;;;;18.86;100.00;100467.09;5097116;28;20028;-75
2023/07/29 04:40:49;;;;;;;2.33;2.00;;;;;;;18.90;100.00;100470.16;5096056;28;20064;-74
2023/07/29 04:43:14;;;;;;;4.63;2.28;;;;;;;18.93;100.00;100474.22;5096869;28;20046;-74
2023/07/29 04:45:43;;;;;;;4.90;2.03;;;;;;;19.02;100.00;100478.31;5096657;28;20036;-74
2023/07/29 04:48:09;;;;;;;2.60;1.85;;;;;;;19.07;100.00;100478.53;5089863;28;20049;-74
2023/07/29 04:50:34;;;;;;;2.03;1.58;;;;;;;19.08;100.00;100470.41;5096567;28;20032;-74
2023/07/29 04:52:59;;;;;;;3.38;1.70;;;;;;;19.08;100.00;100477.50;5097579;28;20028;-74
2023/07/29 04:55:25;;;;;;;4.88;2.22;;;;;;;19.12;100.00;100476.09;5096663;28;20492;-74
2023/07/29 04:57:50;;;;;;;2.50;2.00;;;;;;;19.19;100.00;100483.03;5097182;28;20036;-71
2023/07/29 05:00:16;;;;;;;4.75;2.13;;;;;;;19.18;100.00;100477.94;5094041;28;20468;-69
2023/07/29 05:02:41;;;;;;;4.32;1.40;;;;;;;19.20;100.00;100478.56;5094862;28;20483;-70
2023/07/29 05:05:07;;;;;;;2.85;1.95;;;;;;;19.17;100.00;100485.06;5098662;28;20106;-70
2023/07/29 05:07:33;;;;;;;2.65;1.60;;;;;;;19.10;100.00;100472.84;5096516;28;20609;-70
2023/07/29 05:09:58;;;;;;;3.83;1.60;;;;;;;19.07;100.00;100466.13;5098282;28;20036;-69
2023/07/29 05:12:24;;;;;;;3.75;1.55;;;;;;;19.10;100.00;100464.91;5096864;28;20024;-70
2023/07/29 05:14:49;;;;;;;1.88;1.48;;;;;;;19.08;100.00;100465.13;5095838;28;20463;-69
2023/07/29 05:17:15;;;;;;;2.20;1.20;;;;;;;19.06;100.00;100456.59;5093354;28;20039;-73
2023/07/29 05:19:40;;;;;;;2.53;1.50;;;;;;;19.07;100.00;100460.03;5092853;28;20040;-73
2023/07/29 05:22:06;;;;;;;5.13;1.85;;;;;;;19.10;100.00;100463.09;5098686;28;20114;-73
2023/07/29 05:24:31;;;;;;;3.72;1.20;;;;;;;19.12;100.00;100473.47;5096700;28;20063;-73
2023/07/29 05:26:57;;;;;;;2.63;1.65;;;;;;;19.14;100.00;100474.06;5097405;28;20141;-73
2023/07/29 05:29:22;;;;;;;1.88;1.20;;;;;;;19.17;100.00;100469.22;5097306;28;20024;-73
2023/07/29 05:31:47;;;;;;;2.00;1.23;;;;;;;19.16;100.00;100467.56;5096618;28;20036;-73
2023/07/29 05:34:13;;;;;;;4.43;1.42;;;;;;;19.20;100.00;100468.00;5098698;28;20031;-73
2023/07/29 05:36:39;;;;;;;4.40;1.80;;;;;;;19.26;100.00;100471.66;5096503;28;20446;-74
2023/07/29 05:39:04;;;;;;;3.47;1.95;;;;;;;19.38;100.00;100477.97;5098907;28;20023;-73
2023/07/29 05:41:30;;;;;;;3.25;1.23;;;;;;;19.40;100.00;100482.03;5091263;28;20509;-72
2023/07/29 05:43:55;;;;;;;2.28;1.40;;;;;;;19.41;100.00;100474.91;5096650;28;20036;-73
2023/07/29 05:46:20;;;;;;;3.60;1.40;;;;;;;19.46;100.00;100480.41;5097808;28;20032;-73
2023/07/29 05:48:46;;;;;;;1.70;0.98;;;;;;;19.57;100.00;100479.03;5096483;28;20039;-73
2023/07/29 05:51:11;;;;;;;2.05;1.00;;;;;;;19.66;100.00;100477.81;5097288;28;20019;-73
2023/07/29 05:53:37;;;;;;;2.42;0.88;;;;;;;19.70;100.00;100482.50;5095114;28;20040;-73
2023/07/29 05:56:02;;;;;;;2.97;0.80;;;;;;;19.76;100.00;100478.22;5099025;28;20912;-73
2023/07/29 05:58:28;;;;;;;2.38;1.02;;;;;;;19.79;100.00;100478.63;5096819;28;20028;-73
2023/07/29 06:00:53;;;;;;;3.17;1.13;;;;;;;19.80;100.00;100482.09;5096937;28;20036;-73
2023/07/29 06:03:18;;;;;;;1.90;0.90;;;;;;;19.82;100.00;100483.50;5098125;28;20039;-73
2023/07/29 06:05:44;;;;;;;2.10;1.48;;;;;;;19.81;100.00;100486.38;5096296;28;20040;-73
2023/07/29 06:08:09;;;;;;;3.25;1.45;;;;;;;19.80;100.00;100490.84;5099483;28;20038;-73
2023/07/29 06:10:35;;;;;;;2.35;1.20;;;;;;;19.85;100.00;100491.00;5095451;28;20043;-74
2023/07/29 06:13:00;;;;;;;2.47;1.35;;;;;;;19.93;100.00;100486.53;5095344;28;20118;-73
2023/07/29 06:15:26;;;;;;;3.47;1.30;;;;;;;20.01;100.00;100491.63;5097067;28;20556;-73
2023/07/29 06:17:51;;;;;;;2.75;1.20;;;;;;;20.10;100.00;100493.84;5097366;28;20034;-73
2023/07/29 06:20:17;;;;;;;1.55;0.80;;;;;;;20.00;100.00;100495.28;5094018;28;20035;-73
2023/07/29 06:22:43;;;;;;;2.35;0.90;;;;;;;19.86;100.00;100497.09;5096719;28;20032;-73
2023/07/29 06:25:08;;;;;;;2.60;0.68;;;;;;;19.80;100.00;100496.13;5093627;28;20032;-74
2023/07/29 06:27:34;;;;;;;1.10;0.60;;;;;;;19.89;100.00;100499.34;5099369;28;20020;-73
2023/07/29 06:29:59;;;;;;;2.15;0.90;;;;;;;20.03;100.00;100500.97;5101539;28;20139;-73
2023/07/29 06:32:25;;;;;;;2.28;0.80;;;;;;;20.15;100.00;100494.03;5099763;28;20027;-73
2023/07/29 06:34:51;;;;;;;4.85;1.48;;;;;;;20.19;100.00;100497.09;5101139;28;20028;-73
2023/07/29 06:37:17;;;;;;;3.95;0.80;;;;;;;20.15;100.00;100490.59;5102357;28;20089;-73
2023/07/29 06:39:42;;;;;;;2.78;1.02;;;;;;;20.22;100.00;100483.44;5100683;28;20032;-73
2023/07/29 06:42:08;;;;;;;3.35;0.77;;;;;;;20.35;100.00;100482.59;5096184;28;20032;-66
2023/07/29 06:44:33;;;;;;;4.63;1.40;;;;;;;20.47;100.00;100486.25;5100767;28;20115;-66
2023/07/29 06:46:59;;;;;;;3.78;1.17;;;;;;;20.55;100.00;100488.66;5102317;28;20479;-66
2023/07/29 06:49:24;;;;;;;2.20;0.98;;;;;;;20.73;100.00;100485.34;5101641;28;20106;-66
2023/07/29 06:51:49;;;;;;;1.90;1.20;;;;;;;20.87;100.00;100484.25;5100326;28;20036;-66
2023/07/29 06:54:16;;;;;;;1.50;0.73;;;;;;;20.99;100.00;100482.56;5100639;28;20028;-66
2023/07/29 06:56:42;;;;;;;3.08;0.80;;;;;;;21.10;100.00;100486.38;5100553;28;20032;-65
2023/07/29 06:59:07;;;;;;;2.13;0.63;;;;;;;21.22;100.00;100479.41;5103244;28;20028;-65
2023/07/29 07:01:34;;;;;;;2.40;0.77;;;;;;;21.27;100.00;100487.50;5100487;28;20047;-66
2023/07/29 07:03:59;;;;;;;2.53;0.68;;;;;;;21.25;100.00;100494.06;5102428;28;20136;-65
2023/07/29 07:06:25;;;;;;;2.55;0.60;;;;;;;21.19;100.00;100496.53;5099340;28;20106;-65
2023/07/29 07:08:51;;;;;;;4.93;0.70;;;;;;;21.25;100.00;100478.19;5098940;28;20131;-65
2023/07/29 07:11:17;;;;;;;1.75;0.73;;;;;;;21.32;100.00;100477.09;5102752;28;20514;-65
2023/07/29 07:13:43;;;;;;;3.05;1.02;;;;;;;21.47;100.00;100472.28;5100098;28;20054;-65
2023/07/29 07:16:08;;;;;;;5.80;0.60;;;;;;;21.57;100.00;100468.34;5102431;28;20402;-65
2023/07/29 07:18:34;;;;;;;2.20;0.60;;;;;;;21.72;100.00;100474.16;5100389;28;20031;-66
2023/07/29 07:20:59;;;;;;;2.95;0.85;;;;;;;21.88;100.00;100470.09;5102214;28;20035;-65
2023/07/29 07:23:24;;;;;;;2.15;0.80;;;;;;;21.94;100.00;100467.41;5101601;28;20032;-65
2023/07/29 07:25:50;;;;;;;3.05;0.75;;;;;;;21.90;100.00;100476.81;5099678;28;20043;-66
2023/07/29 07:28:15;;;;;;;1.38;0.50;;;;;;;21.92;100.00;100466.81;5100436;28;20038;-65
2023/07/29 07:30:41;;;;;;;1.67;0.70;;;;;;;21.97;100.00;100469.63;5100093;28;20467;-66
2023/07/29 07:33:07;;;;;;;3.28;0.60;;;;;;;22.12;100.00;100472.78;5101448;28;20032;-65
2023/07/29 07:35:32;;;;;;;1.58;0.50;;;;;;;22.11;100.00;100468.50;5100235;28;20533;-66
2023/07/29 07:37:59;;;;;;;0.80;0.40;;;;;;;22.03;100.00;100465.31;5099632;28;20028;-66
2023/07/29 07:40:24;;;;;;;2.67;0.60;;;;;;;22.21;100.00;100467.19;5097553;28;20495;-67
2023/07/29 07:42:50;;;;;;;2.55;0.50;;;;;;;22.39;100.00;100460.00;5100882;28;20148;-66
2023/07/29 07:45:17;;;;;;;2.65;0.47;;;;;;;22.51;100.00;100465.41;5103060;28;20039;-66
2023/07/29 07:47:43;;;;;;;1.88;0.60;;;;;;;22.56;100.00;100460.22;5100226;28;20020;-67
2023/07/29 07:50:08;;;;;;;1.52;0.57;;;;;;;22.55;100.00;100460.44;5095808;28;20034;-67
2023/07/29 07:52:34;;;;;;;3.13;0.55;;;;;;;22.55;100.00;100460.44;5093592;28;20063;-67
2023/07/29 07:54:59;;;;;;;1.58;0.40;;;;;;;22.72;100.00;100462.25;5100646;28;20036;-67
2023/07/29 07:57:25;;;;;;;2.03;0.40;;;;;;;22.91;100.00;100457.75;5101441;28;20528;-67
2023/07/29 07:59:52;;;;;;;1.67;0.43;;;;;;;22.99;100.00;100457.44;5094674;28;20032;-66
2023/07/29 08:02:18;;;;;;;2.17;0.60;;;;;;;23.14;100.00;100455.19;5102656;28;20545;-67
2023/07/29 08:04:43;;;;;;;2.78;0.50;;;;;;;23.34;100.00;100460.19;5099881;28;20111;-66
2023/07/29 08:07:09;;;;;;;2.58;0.60;;;;;;;23.62;100.00;100458.75;5103713;28;20531;-67
2023/07/29 08:09:34;;;;;;;1.35;0.47;;;;;;;23.94;100.00;100462.69;5097517;28;20032;-67
2023/07/29 08:11:59;;;;;;;1.13;0.40;;;;;;;24.37;100.00;100456.97;5101958;28;20024;-67
2023/07/29 08:14:26;;;;;;;2.35;0.50;;;;;;;24.71;97.87;100452.56;5101592;27;20406;-67
2023/07/29 08:16:51;;;;;;;1.48;0.55;;;;;;;24.84;96.06;100456.00;5100599;28;20096;-67
2023/07/29 08:19:17;;;;;;;2.53;0.40;;;;;;;24.98;94.29;100452.03;5100272;28;20028;-67
2023/07/29 08:21:42;;;;;;;3.35;0.30;;;;;;;25.20;92.55;100449.47;5095541;28;20027;-67
2023/07/29 08:24:08;;;;;;;1.23;0.30;;;;;;;25.32;91.12;100453.69;5097853;28;20035;-67
2023/07/29 08:26:33;;;;;;;2.15;0.38;;;;;;;25.35;90.14;100447.06;5095975;28;20467;-67
2023/07/29 08:28:59;;;;;;;2.08;0.40;;;;;;;25.54;89.29;100452.94;5101763;28;20024;-67
2023/07/29 08:31:24;;;;;;;1.55;0.40;;;;;;;25.61;88.90;100450.94;5101406;28;20027;-67
2023/07/29 08:33:50;;;;;;;2.72;0.50;;;;;;;25.53;87.33;100451.34;5099898;28;20486;-67
2023/07/29 08:36:15;;;;;;;0.90;0.47;;;;;;;25.43;87.07;100452.81;5103044;28;20394;-67
2023/07/29 08:38:41;;;;;;;1.35;0.50;;;;;;;25.58;86.96;100451.41;5099831;28;20483;-67
2023/07/29 08:41:25;;;;;;;2.58;0.50;;;;;;;25.93;86.28;100451.97;5102788;28;20020;-67
2023/07/29 08:50:36;;;;;;;2.40;0.40;;;;;;;26.28;84.64;100456.16;5099390;28;20070;-66
2023/07/29 08:53:04;;;;;;;0.93;0.40;;;;;;;26.16;82.85;100453.59;5098413;28;20384;-67
2023/07/29 08:55:30;;;;;;;1.05;0.30;;;;;;;26.04;82.50;100445.72;5097647;28;20063;-67
2023/07/29 08:57:58;;;;;;;1.45;0.40;;;;;;;26.04;82.50;100448.38;5101117;28;20046;-66
2023/07/29 09:00:23;;;;;;;1.30;0.43;;;;;;;26.02;81.64;100449.69;5102087;28;20032;-68
2023/07/29 09:02:49;;;;;;;1.60;0.50;;;;;;;26.04;80.09;100445.72;5099332;28;20352;-66
2023/07/29 09:05:14;;;;;;;2.70;0.50;;;;;;;26.15;79.97;100435.97;5098844;28;20028;-66
2023/07/29 09:07:41;;;;;;;13.50;1.10;;;;;;;26.04;79.44;100443.03;5099209;28;20043;-67
2023/07/29 09:10:10;;;;;;;1.67;0.50;;;;;;;25.93;79.05;100437.84;5102758;28;20036;-67
2023/07/29 09:12:35;;;;;;;1.17;0.40;;;;;;;25.89;79.86;100434.84;5100217;28;20032;-66
2023/07/29 09:15:01;;;;;;;1.63;0.60;;;;;;;25.99;79.18;100429.66;5101097;28;20048;-66
2023/07/29 09:17:26;;;;;;;2.70;0.50;;;;;;;26.19;79.19;100430.94;5099854;28;20386;-66
2023/07/29 09:19:53;;;;;;;1.48;0.60;;;;;;;26.38;79.86;100435.78;5100154;28;20054;-66
2023/07/29 09:22:20;;;;;;;1.30;0.40;;;;;;;26.41;79.84;100435.28;5102735;28;20035;-66
2023/07/29 09:24:46;;;;;;;2.83;0.40;;;;;;;26.49;80.56;100436.66;5095312;28;20028;-66
2023/07/29 09:27:29;;;;;;;2.35;0.38;;;;;;;26.59;77.64;100441.31;5103441;28;20096;-66
2023/07/29 09:29:55;;;;;;;1.33;0.40;;;;;;;26.70;78.83;100430.50;5097429;28;20093;-66
2023/07/29 09:32:22;;;;;;;1.60;0.40;;;;;;;26.65;79.28;100430.44;5096518;28;20051;-66
2023/07/29 09:34:47;;;;;;;4.75;0.43;;;;;;;26.60;78.87;100438.41;5100039;28;20044;-66
2023/07/29 09:37:23;;;;;;;1.50;0.50;;;;;;;26.66;76.32;100432.06;5103449;28;20084;-66
2023/07/29 09:39:49;;;;;;;0.75;0.30;;;;;;;26.65;77.58;100435.78;5095498;28;20040;-65
2023/07/29 09:42:19;;;;;;;1.00;0.30;;;;;;;26.39;79.79;100436.56;5102858;28;20034;-66
2023/07/29 09:44:45;;;;;;;2.53;0.50;;;;;;;26.15;82.40;100437.84;5096328;28;20344;-65
2023/07/29 09:47:20;;;;;;;1.77;0.40;;;;;;;26.14;80.86;100431.69;5103500;28;20111;-66
2023/07/29 09:49:45;;;;;;;2.22;0.50;;;;;;;26.40;80.56;100432.84;5096245;28;20036;-65
2023/07/29 09:52:11;;;;;;;1.95;0.40;;;;;;;26.17;77.77;100439.19;5097334;28;20030;-66
2023/07/29 09:54:36;;;;;;;1.20;0.40;;;;;;;26.10;78.84;100435.91;5099359;28;20032;-66
2023/07/29 09:57:02;;;;;;;4.55;0.50;;;;;;;26.38;77.48;100440.31;5102253;28;20036;-66
2023/07/29 09:59:28;;;;;;;2.33;0.55;;;;;;;26.77;76.58;100444.47;5101716;28;20070;-65
2023/07/29 10:01:53;;;;;;;1.40;0.40;;;;;;;27.11;76.47;100446.97;5101645;28;20038;-65
2023/07/29 10:04:19;;;;;;;2.00;0.45;;;;;;;27.21;76.64;100443.56;5107429;28;20026;-65
2023/07/29 10:06:46;;;;;;;5.97;0.40;;;;;;;27.19;76.21;100445.69;5102671;28;20047;-65
2023/07/29 10:09:12;;;;;;;2.17;0.45;;;;;;;27.17;77.12;100437.13;5107810;28;20500;-65
2023/07/29 10:11:39;;;;;;;2.70;0.40;;;;;;;27.21;77.61;100449.72;5099476;28;20036;-65
2023/07/29 10:14:04;;;;;;;0.60;0.30;;;;;;;27.19;77.67;100446.50;5102077;28;20024;-66
2023/07/29 10:16:31;;;;;;;2.88;0.50;;;;;;;27.21;77.09;100444.38;5096343;28;20106;-65
2023/07/29 10:18:57;;;;;;;1.40;0.30;;;;;;;26.98;76.37;100445.50;5105519;28;20511;-66
2023/07/29 10:21:23;;;;;;;2.85;0.43;;;;;;;26.85;76.51;100451.25;5106726;28;20027;-65
2023/07/29 10:23:53;;;;;;;1.48;0.40;;;;;;;26.72;75.64;100441.75;5104374;28;20509;-65
2023/07/29 10:26:20;;;;;;;1.40;0.30;;;;;;;26.54;76.90;100444.75;5103746;28;20020;-66
2023/07/29 10:28:47;;;;;;;1.45;0.30;;;;;;;26.35;77.17;100441.59;5103988;28;20024;-65
2023/07/29 10:31:16;;;;;;;2.10;0.32;;;;;;;26.35;76.15;100438.13;5099396;28;20028;-65
2023/07/29 10:33:42;;;;;;;1.60;0.40;;;;;;;26.28;76.06;100435.63;5103736;28;20490;-67
2023/07/29 10:36:09;;;;;;;2.20;0.50;;;;;;;26.09;76.81;100435.09;5077616;28;20471;-66
2023/07/29 10:38:34;;;;;;;0.75;0.30;;;;;;;26.07;76.82;100447.88;5083430;28;20333;-66
2023/07/29 10:41:00;;;;;;;2.03;0.40;;;;;;;26.18;77.03;100434.66;5083238;28;20044;-66
2023/07/29 10:43:38;;;;;;;1.70;0.32;;;;;;;26.58;77.00;100437.84;5081330;28;20036;-66
2023/07/29 10:46:36;;;;;;;1.95;0.55;;;;;;;26.81;75.32;100433.28;5085952;28;20035;-67
2023/07/29 10:49:01;;;;;;;1.80;0.35;;;;;;;26.92;75.74;100424.31;5066992;28;20061;-66
2023/07/29 10:51:29;;;;;;;1.52;0.40;;;;;;;27.05;74.96;100426.56;5085656;28;20039;-66
2023/07/29 10:54:15;;;;;;;2.95;0.30;;;;;;;27.10;72.25;100422.09;5079629;28;20041;-65
2023/07/29 10:56:46;;;;;;;1.13;0.70;;;;;;;27.19;74.37;100421.63;5083128;28;20040;-65
2023/07/29 10:59:12;;;;;;;0.93;0.40;;;;;;;27.28;74.04;100426.25;5078281;28;20494;-66
2023/07/29 11:01:40;;;;;;;1.77;0.50;;;;;;;27.24;73.83;100419.00;5084232;28;20033;-66
2023/07/29 11:04:20;;;;;;;1.02;0.50;;;;;;;26.88;71.97;100418.66;5086116;28;20036;-66
2023/07/29 11:07:04;;;;;;;2.95;0.40;;;;;;;26.89;73.43;100414.94;5083412;28;20040;-65
2023/07/29 11:09:39;;;;;;;1.48;0.60;;;;;;;27.00;68.67;100416.63;5085562;28;20055;-66
2023/07/29 11:12:37;;;;;;;2.33;0.30;;;;;;;26.92;70.33;100414.44;5086140;28;20542;-66
2023/07/29 11:15:23;;;;;;;1.30;0.50;;;;;;;27.14;70.49;100413.56;5074739;28;20526;-66
2023/07/29 11:18:00;;;;;;;3.20;0.43;;;;;;;27.22;69.70;100415.75;5079537;28;20044;-66
2023/07/29 11:20:31;;;;;;;0.90;0.50;;;;;;;27.28;71.57;100420.09;5086131;28;20036;-66
2023/07/29 11:22:59;;;;;;;0.93;0.40;;;;;;;27.13;71.26;100407.41;5084959;28;20094;-66
2023/07/29 11:25:26;;;;;;;3.83;0.65;;;;;;;27.09;71.46;100406.28;5086318;28;20038;-66